Time,TemperatureF,DewpointF,PressureIn,WindDirection,WindDirectionDegrees,WindSpeedMPH,WindSpeedGustMPH,Humidity,HourlyPrecipIn,Conditions,Clouds,dailyrainin,SolarRadiationWatts/m^2,SoftwareType,DateUTC
2013-02-28 00:08:00,56.7,20.0,30.60,North,5,0.0,-999.0,24,-99.99,,,0.00,0,weatherlink.com 1.10,2013-02-28 08:08:00,
2013-02-28 00:23:00,55.2,21.0,30.60,North,360,0.0,-999.0,26,-99.99,,,0.00,0,weatherlink.com 1.10,2013-02-28 08:23:00,
2013-02-28 00:38:00,54.1,20.0,30.61,North,5,0.0,-999.0,26,-99.99,,,0.00,0,weatherlink.com 1.10,2013-02-28 08:38:00,
2013-02-28 00:53:00,53.8,20.0,30.60,North,5,0.0,-999.0,27,-99.99,,,0.00,0,weatherlink.com 1.10,2013-02-28 08:53:00,
2013-02-28 01:08:00,53.7,18.0,30.61,North,360,0.0,-999.0,25,-99.99,,,0.00,0,weatherlink.com 1.10,2013-02-28 09:08:00,
2013-02-28 01:23:00,54.0,18.0,30.61,North,360,0.0,-999.0,24,-99.99,,,0.00,0,weatherlink.com 1.10,2013-02-28 09:23:00,
2013-02-28 01:38:00,53.8,19.0,30.61,North,5,0.0,-999.0,25,-99.99,,,0.00,0,weatherlink.com 1.10,2013-02-28 09:38:00,
2013-02-28 01:53:00,53.4,19.0,30.61,North,360,0.0,-999.0,26,-99.99,,,0.00,0,weatherlink.com 1.10,2013-02-28 09:53:00,
2013-02-28 02:08:00,52.2,19.0,30.61,North,360,0.0,-999.0,27,-99.99,,,0.00,0,weatherlink.com 1.10,2013-02-28 10:08:00,
2013-02-28 02:23:00,52.2,18.0,30.60,North,360,0.0,-999.0,26,-99.99,,,0.00,0,weatherlink.com 1.10,2013-02-28 10:23:00,
2013-02-28 02:38:00,52.4,16.0,30.60,North,5,0.0,-999.0,24,-99.99,,,0.00,0,weatherlink.com 1.10,2013-02-28 10:38:00,
2013-02-28 02:53:00,52.2,17.0,30.60,North,5,0.0,-999.0,25,-99.99,,,0.00,0,weatherlink.com 1.10,2013-02-28 10:53:00,
2013-02-28 03:08:00,52.1,18.0,30.60,North,360,0.0,-999.0,26,-99.99,,,0.00,0,weatherlink.com 1.10,2013-02-28 11:08:00,
2013-02-28 03:23:00,51.9,17.0,30.59,North,5,0.0,-999.0,25,-99.99,,,0.00,0,weatherlink.com 1.10,2013-02-28 11:23:00,
2013-02-28 03:38:00,51.6,18.0,30.60,North,5,0.0,-999.0,27,-99.99,,,0.00,0,weatherlink.com 1.10,2013-02-28 11:38:00,
2013-02-28 03:53:00,49.7,18.0,30.60,North,5,0.0,-999.0,29,-99.99,,,0.00,0,weatherlink.com 1.10,2013-02-28 11:53:00,
2013-02-28 04:08:00,48.1,21.0,30.61,North,360,0.0,-999.0,35,-99.99,,,0.00,0,weatherlink.com 1.10,2013-02-28 12:08:00,
2013-02-28 04:23:00,46.4,21.0,30.61,North,5,0.0,-999.0,37,-99.99,,,0.00,0,weatherlink.com 1.10,2013-02-28 12:23:00,
2013-02-28 04:38:00,46.7,20.0,30.61,North,5,0.0,-999.0,34,-99.99,,,0.00,0,weatherlink.com 1.10,2013-02-28 12:38:00,
2013-02-28 04:53:00,47.1,20.0,30.61,North,360,0.0,-999.0,34,-99.99,,,0.00,0,weatherlink.com 1.10,2013-02-28 12:53:00,
2013-02-28 05:08:00,49.5,18.0,30.61,North,360,0.0,-999.0,29,-99.99,,,0.00,0,weatherlink.com 1.10,2013-02-28 13:08:00,
2013-02-28 05:23:00,50.3,21.0,30.62,North,360,0.0,-999.0,31,-99.99,,,0.00,0,weatherlink.com 1.10,2013-02-28 13:23:00,
2013-02-28 05:38:00,48.1,21.0,30.62,North,360,0.0,-999.0,34,-99.99,,,0.00,0,weatherlink.com 1.10,2013-02-28 13:38:00,
2013-02-28 05:53:00,47.6,20.0,30.63,North,5,0.0,-999.0,33,-99.99,,,0.00,0,weatherlink.com 1.10,2013-02-28 13:53:00,
2013-02-28 06:08:00,47.4,20.0,30.63,North,360,0.0,-999.0,34,-99.99,,,0.00,0,weatherlink.com 1.10,2013-02-28 14:08:00,
2013-02-28 06:23:00,47.5,20.0,30.63,North,5,0.0,-999.0,33,-99.99,,,0.00,12,weatherlink.com 1.10,2013-02-28 14:23:00,
2013-02-28 06:38:00,48.8,23.0,30.63,North,5,0.0,-999.0,36,-99.99,,,0.00,23,weatherlink.com 1.10,2013-02-28 14:38:00,
2013-02-28 06:54:00,49.1,21.0,30.63,North,360,0.0,-999.0,33,-99.99,,,0.00,69,weatherlink.com 1.10,2013-02-28 14:54:00,
2013-02-28 07:09:00,50.7,21.0,30.64,North,5,0.0,-999.0,31,-99.99,,,0.00,121,weatherlink.com 1.10,2013-02-28 15:09:00,
2013-02-28 07:24:00,53.7,20.0,30.65,North,5,0.0,-999.0,27,-99.99,,,0.00,179,weatherlink.com 1.10,2013-02-28 15:24:00,
2013-02-28 07:39:00,56.6,22.0,30.65,North,360,0.0,-999.0,26,-99.99,,,0.00,243,weatherlink.com 1.10,2013-02-28 15:39:00,
2013-02-28 07:54:00,57.7,23.0,30.65,North,360,0.0,-999.0,26,-99.99,,,0.00,295,weatherlink.com 1.10,2013-02-28 15:54:00,
2013-02-28 08:09:00,58.1,25.0,30.65,North,5,0.0,-999.0,28,-99.99,,,0.00,343,weatherlink.com 1.10,2013-02-28 16:09:00,
2013-02-28 08:24:00,58.7,27.0,30.66,North,5,0.0,-999.0,30,-99.99,,,0.00,392,weatherlink.com 1.10,2013-02-28 16:24:00,
2013-02-28 08:39:00,60.4,27.0,30.64,North,5,0.0,-999.0,28,-99.99,,,0.00,443,weatherlink.com 1.10,2013-02-28 16:39:00,
2013-02-28 08:54:00,62.4,28.0,30.64,North,360,0.0,-999.0,27,-99.99,,,0.00,485,weatherlink.com 1.10,2013-02-28 16:54:00,
2013-02-28 09:09:00,64.5,28.0,30.65,North,360,0.0,-999.0,25,-99.99,,,0.00,527,weatherlink.com 1.10,2013-02-28 17:09:00,
2013-02-28 09:24:00,66.5,26.0,30.65,North,5,0.0,-999.0,22,-99.99,,,0.00,564,weatherlink.com 1.10,2013-02-28 17:24:00,
2013-02-28 09:39:00,67.7,31.0,30.65,North,5,0.0,-999.0,25,-99.99,,,0.00,599,weatherlink.com 1.10,2013-02-28 17:39:00,
2013-02-28 09:54:00,68.3,27.0,30.65,North,5,0.0,-999.0,21,-99.99,,,0.00,635,weatherlink.com 1.10,2013-02-28 17:54:00,
2013-02-28 10:09:00,69.4,25.0,30.65,North,360,1.0,-999.0,19,-99.99,,,0.00,664,weatherlink.com 1.10,2013-02-28 18:09:00,
2013-02-28 10:25:00,70.8,25.0,30.65,North,360,0.0,-999.0,18,-99.99,,,0.00,689,weatherlink.com 1.10,2013-02-28 18:25:00,
2013-02-28 10:40:00,72.4,24.0,30.64,North,5,0.0,-999.0,16,-99.99,,,0.00,712,weatherlink.com 1.10,2013-02-28 18:40:00,
2013-02-28 10:55:00,73.3,23.0,30.65,North,5,0.0,-999.0,15,-99.99,,,0.00,731,weatherlink.com 1.10,2013-02-28 18:55:00,
2013-02-28 11:10:00,74.1,22.0,30.64,North,360,0.0,-999.0,14,-99.99,,,0.00,744,weatherlink.com 1.10,2013-02-28 19:10:00,
2013-02-28 11:25:00,75.0,21.0,30.63,North,5,0.0,-999.0,13,-99.99,,,0.00,754,weatherlink.com 1.10,2013-02-28 19:25:00,
2013-02-28 11:40:00,75.3,21.0,30.63,North,360,0.0,-999.0,13,-99.99,,,0.00,761,weatherlink.com 1.10,2013-02-28 19:40:00,
2013-02-28 11:55:00,76.0,25.0,30.62,North,360,0.0,-999.0,15,-99.99,,,0.00,765,weatherlink.com 1.10,2013-02-28 19:55:00,
2013-02-28 12:10:00,76.4,24.0,30.61,North,360,0.0,-999.0,14,-99.99,,,0.00,759,weatherlink.com 1.10,2013-02-28 20:10:00,
2013-02-28 12:25:00,77.1,21.0,30.61,North,355,7.0,-999.0,12,-99.99,,,0.00,754,weatherlink.com 1.10,2013-02-28 20:25:00,
2013-02-28 12:40:00,77.5,21.0,30.60,North,349,0.0,-999.0,12,-99.99,,,0.00,742,weatherlink.com 1.10,2013-02-28 20:40:00,
2013-02-28 12:55:00,77.4,19.0,30.59,NNW,340,4.0,-999.0,11,-99.99,,,0.00,726,weatherlink.com 1.10,2013-02-28 20:55:00,
2013-02-28 13:10:00,77.2,21.0,30.58,NNW,340,0.0,-999.0,12,-99.99,,,0.00,708,weatherlink.com 1.10,2013-02-28 21:10:00,
2013-02-28 13:25:00,78.2,22.0,30.58,NNW,340,0.0,-999.0,12,-99.99,,,0.00,684,weatherlink.com 1.10,2013-02-28 21:25:00,
2013-02-28 13:40:00,78.0,19.0,30.58,NNW,340,0.0,-999.0,11,-99.99,,,0.00,661,weatherlink.com 1.10,2013-02-28 21:40:00,
2013-02-28 13:55:00,78.9,24.0,30.57,NNW,338,0.0,-999.0,13,-99.99,,,0.00,629,weatherlink.com 1.10,2013-02-28 21:55:00,
2013-02-28 14:10:00,79.6,23.0,30.56,NW,315,1.0,-999.0,12,-99.99,,,0.00,599,weatherlink.com 1.10,2013-02-28 22:10:00,
2013-02-28 14:25:00,79.1,26.0,30.56,NW,311,2.0,-999.0,14,-99.99,,,0.00,563,weatherlink.com 1.10,2013-02-28 22:25:00,
2013-02-28 14:40:00,79.5,20.0,30.56,NW,307,0.0,-999.0,11,-99.99,,,0.00,522,weatherlink.com 1.10,2013-02-28 22:40:00,
2013-02-28 14:55:00,79.8,23.0,30.56,NW,306,0.0,-999.0,12,-99.99,,,0.00,482,weatherlink.com 1.10,2013-02-28 22:55:00,
2013-02-28 15:10:00,80.1,21.0,30.55,NW,306,0.0,-999.0,11,-99.99,,,0.00,436,weatherlink.com 1.10,2013-02-28 23:10:00,
2013-02-28 15:25:00,80.0,23.0,30.54,WNW,300,0.0,-999.0,12,-99.99,,,0.00,392,weatherlink.com 1.10,2013-02-28 23:25:00,
2013-02-28 15:40:00,80.7,23.0,30.54,WNW,301,0.0,-999.0,12,-99.99,,,0.00,341,weatherlink.com 1.10,2013-02-28 23:40:00,
2013-02-28 15:55:00,80.7,23.0,30.54,WNW,300,0.0,-999.0,12,-99.99,,,0.00,292,weatherlink.com 1.10,2013-02-28 23:55:00,
2013-02-28 16:10:00,80.3,25.0,30.54,WNW,300,0.0,-999.0,13,-99.99,,,0.00,243,weatherlink.com 1.10,2013-03-01 00:10:00,
2013-02-28 16:25:00,80.4,25.0,30.54,WNW,300,0.0,-999.0,13,-99.99,,,0.00,188,weatherlink.com 1.10,2013-03-01 00:25:00,
2013-02-28 16:41:00,80.5,23.0,30.54,WNW,300,0.0,-999.0,12,-99.99,,,0.00,132,weatherlink.com 1.10,2013-03-01 00:41:00,
2013-02-28 16:56:00,78.4,27.0,30.54,WNW,301,0.0,-999.0,15,-99.99,,,0.00,30,weatherlink.com 1.10,2013-03-01 00:56:00,
2013-02-28 17:11:00,77.0,26.0,30.54,WNW,301,0.0,-999.0,15,-99.99,,,0.00,23,weatherlink.com 1.10,2013-03-01 01:11:00,
2013-02-28 17:26:00,75.8,26.0,30.54,WNW,301,0.0,-999.0,16,-99.99,,,0.00,14,weatherlink.com 1.10,2013-03-01 01:26:00,
2013-02-28 17:41:00,74.0,25.0,30.54,WNW,301,0.0,-999.0,16,-99.99,,,0.00,5,weatherlink.com 1.10,2013-03-01 01:41:00,
2013-02-28 17:56:00,71.9,29.0,30.55,WNW,301,0.0,-999.0,20,-99.99,,,0.00,0,weatherlink.com 1.10,2013-03-01 01:56:00,
2013-02-28 18:11:00,69.6,31.0,30.55,WNW,300,0.0,-999.0,24,-99.99,,,0.00,0,weatherlink.com 1.10,2013-03-01 02:11:00,
2013-02-28 18:26:00,67.8,29.0,30.56,WNW,300,0.0,-999.0,23,-99.99,,,0.00,0,weatherlink.com 1.10,2013-03-01 02:26:00,
2013-02-28 18:41:00,67.0,26.0,30.57,WNW,301,0.0,-999.0,21,-99.99,,,0.00,0,weatherlink.com 1.10,2013-03-01 02:41:00,
2013-02-28 18:56:00,66.8,28.0,30.57,WNW,301,0.0,-999.0,23,-99.99,,,0.00,0,weatherlink.com 1.10,2013-03-01 02:56:00,
2013-02-28 19:11:00,65.8,29.0,30.57,WNW,301,0.0,-999.0,25,-99.99,,,0.00,0,weatherlink.com 1.10,2013-03-01 03:11:00,
2013-02-28 19:26:00,64.0,30.0,30.58,WNW,301,0.0,-999.0,28,-99.99,,,0.00,0,weatherlink.com 1.10,2013-03-01 03:26:00,
2013-02-28 19:41:00,62.7,30.0,30.59,WNW,301,0.0,-999.0,29,-99.99,,,0.00,0,weatherlink.com 1.10,2013-03-01 03:41:00,
2013-02-28 19:56:00,61.9,30.0,30.59,WNW,301,0.0,-999.0,30,-99.99,,,0.00,0,weatherlink.com 1.10,2013-03-01 03:56:00,
2013-02-28 20:11:00,62.2,27.0,30.59,WNW,300,1.0,-999.0,26,-99.99,,,0.00,0,weatherlink.com 1.10,2013-03-01 04:11:00,
2013-02-28 20:26:00,63.0,25.0,30.60,WNW,301,0.0,-999.0,24,-99.99,,,0.00,0,weatherlink.com 1.10,2013-03-01 04:26:00,
2013-02-28 20:41:00,62.8,27.0,30.60,WNW,301,0.0,-999.0,26,-99.99,,,0.00,0,weatherlink.com 1.10,2013-03-01 04:41:00,
2013-02-28 20:56:00,62.4,28.0,30.61,WNW,301,0.0,-999.0,27,-99.99,,,0.00,0,weatherlink.com 1.10,2013-03-01 04:56:00,
2013-02-28 21:11:00,61.2,29.0,30.61,WNW,301,0.0,-999.0,29,-99.99,,,0.00,0,weatherlink.com 1.10,2013-03-01 05:11:00,
2013-02-28 21:26:00,60.0,28.0,30.61,WNW,301,0.0,-999.0,30,-99.99,,,0.00,0,weatherlink.com 1.10,2013-03-01 05:26:00,
2013-02-28 21:41:00,59.6,28.0,30.61,WNW,300,0.0,-999.0,30,-99.99,,,0.00,0,weatherlink.com 1.10,2013-03-01 05:41:00,
2013-02-28 21:56:00,59.0,29.0,30.61,WNW,300,0.0,-999.0,32,-99.99,,,0.00,0,weatherlink.com 1.10,2013-03-01 05:56:00,
2013-02-28 22:11:00,59.3,27.0,30.60,WNW,301,0.0,-999.0,29,-99.99,,,0.00,0,weatherlink.com 1.10,2013-03-01 06:11:00,
2013-02-28 22:26:00,59.7,26.0,30.61,WNW,301,0.0,-999.0,28,-99.99,,,0.00,0,weatherlink.com 1.10,2013-03-01 06:26:00,
2013-02-28 22:41:00,59.4,25.0,30.61,WNW,301,0.0,-999.0,27,-99.99,,,0.00,0,weatherlink.com 1.10,2013-03-01 06:41:00,
2013-02-28 22:56:00,59.1,29.0,30.61,WNW,301,0.0,-999.0,32,-99.99,,,0.00,0,weatherlink.com 1.10,2013-03-01 06:56:00,
2013-02-28 23:11:00,58.1,30.0,30.60,WNW,301,0.0,-999.0,34,-99.99,,,0.00,0,weatherlink.com 1.10,2013-03-01 07:11:00,
2013-02-28 23:26:00,58.1,29.0,30.61,WNW,300,0.0,-999.0,33,-99.99,,,0.00,0,weatherlink.com 1.10,2013-03-01 07:26:00,
2013-02-28 23:41:00,57.4,27.0,30.61,WNW,300,0.0,-999.0,31,-99.99,,,0.00,0,weatherlink.com 1.10,2013-03-01 07:41:00,
2013-02-28 23:56:00,57.4,28.0,30.61,WNW,301,0.0,-999.0,32,-99.99,,,0.00,0,weatherlink.com 1.10,2013-03-01 07:56:00,